Time;durP1;ratioP1;P1;durP2;ratioP2;P2;SDS_P1;SDS_P2;PMS_P1;PMS_P2;Temp;Humidity;BMP_temperature;BMP_pressure;BME280_temperature;BME280_humidity;BME280_pressure;Samples;Min_cycle;Max_cycle;Signal;HPM_P1;HPM_P2
2024/02/10 00:01:18;;;;;;;9.80;1.97;;;12.80;99.90;;;;;;7283344;19;20185;-78
2024/02/10 00:03:45;;;;;;;5.93;1.80;;;12.80;99.90;;;;;;7282946;19;20177;-78
2024/02/10 00:06:15;;;;;;;7.20;2.03;;;12.80;99.90;;;;;;7284613;19;20181;-76
2024/02/10 00:08:44;;;;;;;5.97;1.57;;;12.90;99.90;;;;;;7282419;19;20996;-77
2024/02/10 00:11:13;;;;;;;9.33;2.10;;;12.80;99.90;;;;;;7284399;19;20174;-77
2024/02/10 00:13:41;;;;;;;4.03;1.60;;;12.80;99.90;;;;;;7283146;19;20209;-77
2024/02/10 00:16:08;;;;;;;7.33;1.77;;;12.60;99.90;;;;;;7280974;19;20189;-77
2024/02/10 00:18:34;;;;;;;5.80;1.80;;;12.70;99.90;;;;;;7282757;19;20181;-77
2024/02/10 00:21:02;;;;;;;5.50;1.50;;;12.60;99.90;;;;;;7281550;19;20191;-78
2024/02/10 00:23:28;;;;;;;6.63;1.63;;;12.70;99.90;;;;;;7283949;19;20283;-77
2024/02/10 00:25:54;;;;;;;6.83;2.10;;;12.60;99.90;;;;;;7283689;19;20210;-77
2024/02/10 00:28:21;;;;;;;4.43;1.77;;;12.60;99.90;;;;;;7290718;19;20199;-77
2024/02/10 00:30:48;;;;;;;7.07;2.00;;;12.50;99.90;;;;;;7302618;19;20677;-78
2024/02/10 00:33:14;;;;;;;8.27;2.00;;;12.40;99.90;;;;;;7283395;19;20192;-78
2024/02/10 00:35:40;;;;;;;6.47;1.50;;;12.40;99.90;;;;;;7282037;19;20183;-78
2024/02/10 00:38:05;;;;;;;6.43;1.90;;;12.50;99.90;;;;;;7282352;19;20196;-78
2024/02/10 00:40:31;;;;;;;5.77;2.00;;;12.50;99.90;;;;;;7283371;19;20192;-78
2024/02/10 00:42:57;;;;;;;7.37;1.60;;;12.60;99.90;;;;;;7283259;19;20252;-77
2024/02/10 00:45:23;;;;;;;7.90;1.90;;;12.60;99.90;;;;;;7282742;19;20210;-78
2024/02/10 00:47:49;;;;;;;7.90;1.90;;;12.60;99.90;;;;;;7301969;19;20197;-78
2024/02/10 00:50:17;;;;;;;7.80;2.20;;;12.60;99.90;;;;;;7282298;19;22210;-78
2024/02/10 00:52:49;;;;;;;6.97;1.87;;;12.60;99.90;;;;;;7281004;19;20184;-78
2024/02/10 00:55:27;;;;;;;6.13;1.90;;;12.60;99.90;;;;;;7282537;19;20185;-78
2024/02/10 00:57:53;;;;;;;8.07;2.47;;;12.60;99.90;;;;;;7261392;19;20580;-77
2024/02/10 01:00:21;;;;;;;6.23;2.17;;;12.60;99.90;;;;;;7304940;19;20233;-78
2024/02/10 01:02:47;;;;;;;8.10;2.33;;;12.60;99.90;;;;;;7282874;19;20256;-79
2024/02/10 01:05:14;;;;;;;7.07;2.30;;;12.60;99.90;;;;;;7283255;19;20300;-78
2024/02/10 01:07:40;;;;;;;6.43;2.30;;;12.60;99.90;;;;;;7282652;19;20202;-78
2024/02/10 01:10:06;;;;;;;9.73;2.20;;;12.50;99.90;;;;;;7284313;19;20519;-78
2024/02/10 01:12:33;;;;;;;6.53;2.30;;;12.60;99.90;;;;;;7282640;19;20193;-78
2024/02/10 01:14:58;;;;;;;6.63;1.97;;;12.60;99.90;;;;;;7283466;19;20564;-79
2024/02/10 01:17:27;;;;;;;9.30;2.33;;;12.60;99.90;;;;;;7283242;19;20201;-78
2024/02/10 01:19:54;;;;;;;5.50;1.83;;;12.60;99.90;;;;;;7283904;19;20208;-77
2024/02/10 01:22:26;;;;;;;5.07;1.83;;;12.60;99.90;;;;;;7306868;19;20200;-77
2024/02/10 01:24:55;;;;;;;4.83;1.80;;;12.60;99.90;;;;;;7293329;19;20192;-77
2024/02/10 01:27:22;;;;;;;7.83;2.30;;;12.50;99.90;;;;;;7299090;19;20730;-78
2024/02/10 01:29:50;;;;;;;5.27;1.83;;;12.40;99.90;;;;;;7310012;19;20189;-77
2024/02/10 01:32:19;;;;;;;5.90;1.90;;;12.40;99.90;;;;;;7282877;19;20184;-78
2024/02/10 01:34:47;;;;;;;5.87;1.70;;;12.40;99.90;;;;;;7281205;19;20202;-78
2024/02/10 01:37:17;;;;;;;4.23;1.60;;;12.40;99.90;;;;;;7281410;19;20181;-78
2024/02/10 01:39:47;;;;;;;6.73;1.70;;;12.40;99.90;;;;;;7280094;19;20260;-78
2024/02/10 01:42:20;;;;;;;6.50;1.80;;;12.40;99.90;;;;;;7280519;19;20197;-78
2024/02/10 01:44:46;;;;;;;7.10;1.70;;;12.40;99.90;;;;;;7288013;19;20598;-77
2024/02/10 01:47:13;;;;;;;6.40;2.00;;;12.40;99.90;;;;;;7287513;19;20209;-78
2024/02/10 01:49:41;;;;;;;5.00;1.70;;;12.50;99.90;;;;;;7287727;19;21333;-78
2024/02/10 01:52:08;;;;;;;8.70;2.03;;;12.50;99.90;;;;;;7286358;19;20191;-78
2024/02/10 01:54:36;;;;;;;9.43;1.70;;;12.50;99.90;;;;;;7287435;19;20196;-78
2024/02/10 01:57:05;;;;;;;5.57;1.83;;;12.50;99.90;;;;;;7287516;19;20185;-78
2024/02/10 01:59:35;;;;;;;7.40;2.03;;;12.50;99.90;;;;;;7285532;19;20213;-78
2024/02/10 02:02:03;;;;;;;7.10;1.80;;;12.50;99.90;;;;;;7285668;19;20185;-78
2024/02/10 02:04:35;;;;;;;6.03;1.50;;;12.40;99.90;;;;;;7288699;19;20299;-77
2024/02/10 02:07:08;;;;;;;7.73;1.80;;;12.40;99.90;;;;;;7287877;19;20195;-78
2024/02/10 02:09:35;;;;;;;8.20;2.00;;;12.40;99.90;;;;;;7286666;19;20189;-78
2024/02/10 02:12:06;;;;;;;5.80;1.60;;;12.30;99.90;;;;;;7287834;19;20200;-78
2024/02/10 02:14:35;;;;;;;4.67;1.37;;;12.30;99.90;;;;;;7286805;19;20196;-78
2024/02/10 02:17:05;;;;;;;6.07;1.50;;;12.20;99.90;;;;;;7287707;19;20651;-78
2024/02/10 02:19:42;;;;;;;5.97;1.43;;;12.20;99.90;;;;;;7286575;19;20672;-78
2024/02/10 02:22:13;;;;;;;5.73;1.60;;;12.30;99.90;;;;;;7287401;19;20204;-78
2024/02/10 02:24:39;;;;;;;5.90;1.70;;;12.20;99.90;;;;;;7287712;19;20210;-78
2024/02/10 02:27:09;;;;;;;5.20;1.40;;;12.10;99.90;;;;;;7286626;19;20204;-78
2024/02/10 02:29:35;;;;;;;6.87;1.63;;;12.10;99.90;;;;;;7284197;19;20187;-78
2024/02/10 02:32:01;;;;;;;7.77;1.70;;;12.00;99.90;;;;;;7287270;19;20206;-78
2024/02/10 02:34:28;;;;;;;7.93;2.13;;;12.00;99.90;;;;;;7286606;19;20180;-78
2024/02/10 02:36:53;;;;;;;8.77;1.70;;;11.90;99.90;;;;;;7286341;19;20256;-78
2024/02/10 02:39:20;;;;;;;4.23;1.37;;;12.00;99.90;;;;;;7309365;19;20185;-79
2024/02/10 02:41:46;;;;;;;8.83;2.20;;;11.90;99.90;;;;;;7286785;19;20185;-78
2024/02/10 02:44:14;;;;;;;6.70;1.60;;;11.90;99.90;;;;;;7286896;19;20276;-78
2024/02/10 02:46:43;;;;;;;7.97;1.83;;;11.90;99.90;;;;;;7286735;19;20989;-78
2024/02/10 02:49:12;;;;;;;7.23;1.77;;;11.90;99.90;;;;;;7285110;19;20546;-78
2024/02/10 02:51:38;;;;;;;5.60;1.70;;;11.80;99.90;;;;;;7286866;19;20887;-78
2024/02/10 02:54:04;;;;;;;5.50;1.57;;;11.70;99.90;;;;;;7285050;19;20189;-78
2024/02/10 02:56:30;;;;;;;7.17;1.97;;;11.70;99.90;;;;;;7285393;19;20186;-78
2024/02/10 02:58:56;;;;;;;9.13;1.63;;;11.60;99.90;;;;;;7285152;19;20184;-77
2024/02/10 03:01:23;;;;;;;6.20;1.70;;;11.70;99.90;;;;;;7284849;19;20203;-78
2024/02/10 03:03:52;;;;;;;6.30;1.50;;;11.70;99.90;;;;;;7308913;19;20237;-78
2024/02/10 03:06:19;;;;;;;4.80;1.70;;;11.70;99.90;;;;;;7287424;19;20194;-78
2024/02/10 03:08:48;;;;;;;5.93;1.70;;;11.60;99.90;;;;;;7284464;19;20199;-78
2024/02/10 03:11:19;;;;;;;6.67;1.70;;;11.50;99.90;;;;;;7285744;19;20208;-78
2024/02/10 03:13:48;;;;;;;6.20;1.70;;;11.50;99.90;;;;;;7286514;19;20192;-78
2024/02/10 03:16:17;;;;;;;4.63;1.60;;;11.60;99.90;;;;;;7285230;19;20195;-78
2024/02/10 03:18:45;;;;;;;6.43;1.80;;;11.60;99.90;;;;;;7285374;19;20193;-78
2024/02/10 03:21:22;;;;;;;7.83;1.90;;;11.60;99.90;;;;;;7285309;19;20189;-78
2024/02/10 03:23:48;;;;;;;4.60;1.50;;;11.70;99.90;;;;;;7285359;19;20567;-78
2024/02/10 03:26:14;;;;;;;5.57;1.87;;;11.60;99.90;;;;;;7284992;19;20197;-78
2024/02/10 03:28:39;;;;;;;4.17;1.90;;;11.60;99.90;;;;;;7285056;19;20198;-79
2024/02/10 03:31:07;;;;;;;6.77;2.00;;;11.60;99.90;;;;;;7285845;19;20196;-78
2024/02/10 03:33:34;;;;;;;5.73;1.73;;;11.50;99.90;;;;;;7285768;19;20284;-78
2024/02/10 03:36:00;;;;;;;5.77;1.80;;;11.60;99.90;;;;;;7283214;19;20725;-78
2024/02/10 03:38:27;;;;;;;6.40;1.77;;;11.60;99.90;;;;;;7285066;19;20260;-78
2024/02/10 03:40:53;;;;;;;4.77;1.77;;;11.60;99.90;;;;;;7282356;19;20188;-78
2024/02/10 03:43:26;;;;;;;7.50;1.97;;;11.50;99.90;;;;;;7307015;19;20193;-78
2024/02/10 03:45:54;;;;;;;5.87;1.90;;;11.50;99.90;;;;;;7265244;19;20188;-77
2024/02/10 03:48:20;;;;;;;5.77;2.10;;;11.40;99.90;;;;;;7301457;19;20184;-77
2024/02/10 03:50:46;;;;;;;5.27;1.77;;;11.40;99.90;;;;;;7299915;19;20194;-77
2024/02/10 03:53:11;;;;;;;6.87;1.87;;;11.40;99.90;;;;;;7284758;19;20833;-78
2024/02/10 03:55:38;;;;;;;7.20;1.70;;;11.50;99.90;;;;;;7284531;19;20243;-78
2024/02/10 03:58:08;;;;;;;5.73;1.67;;;11.50;99.90;;;;;;7283179;19;20218;-78
2024/02/10 04:00:36;;;;;;;5.00;1.70;;;11.40;99.90;;;;;;7283103;19;20267;-78
2024/02/10 04:03:03;;;;;;;4.63;1.63;;;11.40;99.90;;;;;;7284584;19;20858;-78
2024/02/10 04:05:34;;;;;;;5.13;1.83;;;11.50;99.90;;;;;;7280965;19;20534;-78
2024/02/10 04:08:02;;;;;;;6.47;1.70;;;11.60;99.90;;;;;;7282944;19;20571;-78
2024/02/10 04:10:28;;;;;;;6.50;1.80;;;11.70;99.90;;;;;;7284558;19;20683;-79
2024/02/10 04:12:54;;;;;;;6.00;1.93;;;11.80;99.90;;;;;;7282715;19;20210;-78
2024/02/10 04:15:20;;;;;;;5.50;2.00;;;11.90;99.90;;;;;;7304879;19;20798;-78
2024/02/10 04:17:53;;;;;;;7.63;1.77;;;12.00;99.90;;;;;;7285336;19;20196;-78
2024/02/10 04:20:25;;;;;;;5.37;1.63;;;12.00;99.90;;;;;;7285919;19;20193;-78
2024/02/10 04:22:51;;;;;;;5.60;2.07;;;11.90;99.90;;;;;;7283466;19;20192;-77
2024/02/10 04:25:17;;;;;;;5.63;1.80;;;11.90;99.90;;;;;;7312685;19;20217;-78
2024/02/10 04:27:43;;;;;;;6.47;1.77;;;12.00;99.90;;;;;;7294064;19;20192;-77
2024/02/10 04:30:10;;;;;;;5.77;2.00;;;12.10;99.90;;;;;;7286566;19;20193;-77
2024/02/10 04:32:48;;;;;;;4.20;1.50;;;12.20;99.90;;;;;;7284175;19;21077;-77
2024/02/10 04:35:14;;;;;;;6.17;1.83;;;12.20;99.90;;;;;;7282396;19;20197;-77
2024/02/10 04:37:55;;;;;;;6.23;1.93;;;12.20;99.90;;;;;;7283253;19;20221;-77
2024/02/10 04:40:24;;;;;;;7.43;1.93;;;12.20;99.90;;;;;;7277214;19;20647;-77
2024/02/10 04:42:52;;;;;;;7.93;1.77;;;12.30;99.90;;;;;;7303146;19;20196;-77
2024/02/10 04:45:26;;;;;;;5.17;1.90;;;12.30;99.90;;;;;;7305540;19;20266;-77
2024/02/10 04:47:52;;;;;;;5.97;1.70;;;12.30;99.90;;;;;;7266096;19;20196;-77
2024/02/10 04:50:21;;;;;;;6.77;2.07;;;12.30;99.90;;;;;;7305494;19;20188;-76
2024/02/10 04:52:47;;;;;;;6.93;2.13;;;12.20;99.90;;;;;;7282396;19;20687;-77
2024/02/10 04:55:13;;;;;;;5.40;2.20;;;12.10;99.90;;;;;;7280906;19;20237;-78
2024/02/10 04:57:40;;;;;;;6.60;2.03;;;12.00;99.90;;;;;;7284417;19;20188;-78
2024/02/10 05:00:15;;;;;;;6.10;2.00;;;12.00;99.90;;;;;;7282885;19;20701;-77
2024/02/10 05:03:02;;;;;;;7.80;1.83;;;12.00;99.90;;;;;;7281875;19;20209;-78
2024/02/10 05:05:28;;;;;;;5.20;2.03;;;12.00;99.90;;;;;;7179846;19;2004648;-78
2024/02/10 05:07:56;;;;;;;5.87;2.03;;;12.00;99.90;;;;;;7281443;19;20516;-77
2024/02/10 05:10:23;;;;;;;7.47;2.20;;;12.00;99.90;;;;;;7285319;19;20730;-77
2024/02/10 05:12:49;;;;;;;6.77;2.33;;;12.00;99.90;;;;;;7303153;19;20676;-78
2024/02/10 05:15:20;;;;;;;5.73;2.10;;;11.90;99.90;;;;;;7282756;19;20208;-78
2024/02/10 05:17:50;;;;;;;5.60;1.80;;;11.90;99.90;;;;;;7286432;19;20252;-77
2024/02/10 05:20:21;;;;;;;6.27;2.30;;;11.90;99.90;;;;;;7288859;19;20202;-77
2024/02/10 05:22:54;;;;;;;6.70;2.10;;;11.90;99.90;;;;;;7287944;19;20838;-77
2024/02/10 05:25:21;;;;;;;7.63;2.40;;;11.80;99.90;;;;;;7288317;19;20188;-77
2024/02/10 05:27:48;;;;;;;7.40;2.30;;;11.90;99.90;;;;;;7287932;19;20200;-77
2024/02/10 05:30:19;;;;;;;5.87;2.20;;;11.80;99.90;;;;;;7288766;19;20647;-77
2024/02/10 05:32:44;;;;;;;6.80;2.27;;;11.90;99.90;;;;;;7286829;19;20710;-76
2024/02/10 05:35:19;;;;;;;5.23;2.17;;;11.70;99.90;;;;;;7288156;19;20216;-77
2024/02/10 05:37:53;;;;;;;6.43;2.27;;;11.70;99.90;;;;;;7289172;19;20692;-76
2024/02/10 05:40:20;;;;;;;7.13;2.30;;;11.80;99.90;;;;;;7288425;19;20188;-77
2024/02/10 05:42:47;;;;;;;9.30;3.07;;;11.80;99.90;;;;;;7287629;19;20302;-77
2024/02/10 05:45:14;;;;;;;8.80;2.47;;;11.90;99.90;;;;;;7287815;19;20204;-77
2024/02/10 05:47:39;;;;;;;6.33;2.40;;;11.90;99.90;;;;;;7287380;19;20189;-78
2024/02/10 05:50:12;;;;;;;5.47;2.40;;;12.00;99.90;;;;;;7287977;19;20199;-78
2024/02/10 05:52:41;;;;;;;7.57;2.40;;;12.00;99.90;;;;;;7286835;19;20200;-77
2024/02/10 05:55:09;;;;;;;7.33;2.40;;;12.00;99.90;;;;;;7287561;19;20650;-77
2024/02/10 05:57:36;;;;;;;5.97;2.47;;;12.00;99.90;;;;;;7289284;19;20204;-77
2024/02/10 06:00:04;;;;;;;10.60;2.60;;;12.10;99.90;;;;;;7286945;19;20880;-77
2024/02/10 06:02:31;;;;;;;9.20;2.40;;;12.10;99.90;;;;;;7287249;19;20191;-77
2024/02/10 06:04:57;;;;;;;6.97;2.40;;;12.10;99.90;;;;;;7286465;19;20193;-77
2024/02/10 06:07:25;;;;;;;5.80;2.57;;;12.10;99.90;;;;;;7285877;19;20542;-77
2024/02/10 06:09:51;;;;;;;7.27;2.60;;;12.10;99.90;;;;;;7299335;19;20203;-77
2024/02/10 06:12:16;;;;;;;10.50;2.70;;;12.20;99.90;;;;;;7302542;19;20244;-77
2024/02/10 06:14:43;;;;;;;6.27;2.40;;;12.20;99.90;;;;;;7285557;19;20189;-78
2024/02/10 06:17:11;;;;;;;7.47;2.53;;;12.20;99.90;;;;;;7287300;19;20735;-77
2024/02/10 06:19:38;;;;;;;6.50;2.60;;;12.20;99.90;;;;;;7286548;19;20541;-78
2024/02/10 06:22:06;;;;;;;8.17;2.67;;;12.30;99.90;;;;;;7285540;19;20205;-77
2024/02/10 06:24:34;;;;;;;8.40;2.50;;;12.30;99.90;;;;;;7287419;19;20199;-78
2024/02/10 06:27:00;;;;;;;7.13;2.87;;;12.30;99.90;;;;;;7285947;19;20686;-77
2024/02/10 06:29:25;;;;;;;8.93;2.60;;;12.20;99.90;;;;;;7283490;19;20647;-77
2024/02/10 06:31:51;;;;;;;7.17;2.77;;;12.10;99.90;;;;;;7298344;19;20214;-77
2024/02/10 06:34:17;;;;;;;7.13;2.90;;;12.10;99.90;;;;;;7303629;19;20326;-77
2024/02/10 06:36:47;;;;;;;7.83;2.73;;;12.00;99.90;;;;;;7285385;19;20193;-78
2024/02/10 06:39:14;;;;;;;7.73;2.73;;;12.00;99.90;;;;;;7288215;19;20186;-77
2024/02/10 06:41:43;;;;;;;7.37;2.70;;;11.80;99.90;;;;;;7286856;19;20200;-78
2024/02/10 06:44:09;;;;;;;12.10;3.03;;;11.80;99.90;;;;;;7286011;19;20256;-77
2024/02/10 06:46:35;;;;;;;7.93;3.13;;;11.80;99.90;;;;;;7285695;19;20217;-77
2024/02/10 06:49:01;;;;;;;8.20;2.80;;;11.80;99.90;;;;;;7284712;19;20188;-77
2024/02/10 06:51:26;;;;;;;7.17;2.70;;;11.90;99.90;;;;;;7286784;19;20552;-77
2024/02/10 06:53:52;;;;;;;7.97;3.10;;;11.90;99.90;;;;;;7288893;19;20181;-76
2024/02/10 06:56:18;;;;;;;6.63;2.83;;;11.90;99.90;;;;;;7306021;19;20216;-77
2024/02/10 06:58:43;;;;;;;8.10;3.17;;;11.90;99.90;;;;;;7286167;19;20188;-77
2024/02/10 07:01:12;;;;;;;7.90;3.30;;;11.80;99.90;;;;;;7284060;19;20534;-77
2024/02/10 07:03:37;;;;;;;10.00;3.33;;;11.70;99.90;;;;;;7287073;19;20192;-78
2024/02/10 07:06:09;;;;;;;9.30;3.17;;;11.60;99.90;;;;;;7282282;19;20196;-77
2024/02/10 07:08:35;;;;;;;18.33;12.53;;;11.60;99.90;;;;;;7284919;19;20197;-76
2024/02/10 07:11:00;;;;;;;9.43;3.70;;;11.60;99.90;;;;;;7285257;19;20192;-78
2024/02/10 07:13:26;;;;;;;9.13;3.33;;;11.50;99.90;;;;;;7284406;19;20197;-76
2024/02/10 07:15:54;;;;;;;7.50;3.63;;;11.50;99.90;;;;;;7294622;19;20196;-76
2024/02/10 07:18:20;;;;;;;11.73;3.23;;;11.50;99.90;;;;;;7328782;19;20199;-77
2024/02/10 07:20:46;;;;;;;8.40;3.13;;;11.30;99.90;;;;;;7296033;19;20731;-76
2024/02/10 07:23:11;;;;;;;10.83;3.77;;;11.30;99.90;;;;;;7285054;19;20208;-76
2024/02/10 07:25:44;;;;;;;10.50;3.37;;;11.30;99.90;;;;;;7284659;19;20215;-76
2024/02/10 07:28:11;;;;;;;8.47;3.30;;;11.40;99.90;;;;;;7283754;19;22322;-77
2024/02/10 07:30:37;;;;;;;8.20;3.60;;;11.30;99.90;;;;;;7284983;19;20623;-76
2024/02/10 07:33:03;;;;;;;9.77;3.77;;;11.50;99.90;;;;;;7286252;19;20189;-77
2024/02/10 07:35:32;;;;;;;12.27;3.57;;;11.50;99.90;;;;;;7284114;19;20188;-77
2024/02/10 07:37:58;;;;;;;8.13;3.57;;;11.60;99.90;;;;;;7286138;19;20200;-78
2024/02/10 07:40:24;;;;;;;10.00;3.47;;;11.60;99.90;;;;;;7284165;19;20644;-77
2024/02/10 07:42:52;;;;;;;8.37;3.43;;;11.60;99.90;;;;;;7308126;19;20233;-78
2024/02/10 07:45:19;;;;;;;12.63;4.57;;;11.70;99.90;;;;;;7284489;19;20193;-77
2024/02/10 07:47:46;;;;;;;12.13;4.20;;;11.90;99.90;;;;;;7284522;19;20183;-77
2024/02/10 07:50:13;;;;;;;10.60;4.07;;;12.00;99.90;;;;;;7284961;19;20202;-77
2024/02/10 07:52:40;;;;;;;13.07;4.70;;;12.10;99.90;;;;;;7282218;19;20188;-77
2024/02/10 07:55:12;;;;;;;19.57;7.70;;;12.00;99.90;;;;;;7282519;19;20203;-77
2024/02/10 07:57:41;;;;;;;17.77;6.93;;;11.90;99.90;;;;;;7282908;19;20236;-77
2024/02/10 08:00:11;;;;;;;13.07;5.73;;;12.00;99.90;;;;;;7283624;19;20902;-78
2024/02/10 08:02:37;;;;;;;10.43;4.30;;;12.00;99.90;;;;;;7283954;19;20191;-77
2024/02/10 08:05:04;;;;;;;11.57;4.10;;;12.10;99.90;;;;;;7283527;19;20203;-77
2024/02/10 08:07:30;;;;;;;11.83;3.97;;;12.10;99.90;;;;;;7282940;19;20185;-77
2024/02/10 08:09:57;;;;;;;8.33;3.53;;;12.20;99.90;;;;;;7283640;19;20188;-77
2024/02/10 08:12:23;;;;;;;10.30;4.97;;;12.20;99.90;;;;;;7284529;19;20204;-77
2024/02/10 08:14:57;;;;;;;40.17;36.53;;;12.40;99.90;;;;;;7306303;19;20194;-77
2024/02/10 08:17:26;;;;;;;11.00;4.90;;;12.50;99.90;;;;;;7264296;19;20187;-77
2024/02/10 08:19:57;;;;;;;9.53;5.50;;;12.50;99.90;;;;;;7298281;19;20193;-77
2024/02/10 08:22:24;;;;;;;14.23;5.10;;;12.40;99.90;;;;;;7284515;19;20195;-77
2024/02/10 08:24:51;;;;;;;10.57;4.60;;;12.40;99.90;;;;;;7306346;19;20189;-77
2024/02/10 08:27:18;;;;;;;13.27;4.93;;;12.40;99.90;;;;;;7282266;19;20265;-77
2024/02/10 08:29:45;;;;;;;10.03;4.30;;;12.40;99.90;;;;;;7281459;19;20264;-78
2024/02/10 08:32:13;;;;;;;9.50;4.70;;;12.40;99.90;;;;;;7282340;19;20183;-77
2024/02/10 08:34:42;;;;;;;13.20;5.10;;;12.40;99.90;;;;;;7280758;19;20188;-77
2024/02/10 08:37:12;;;;;;;10.43;4.70;;;12.30;99.90;;;;;;7281979;19;20515;-77
2024/02/10 08:39:47;;;;;;;15.43;5.33;;;12.40;99.90;;;;;;7284082;19;20192;-76
2024/02/10 08:42:14;;;;;;;10.70;4.77;;;12.50;99.90;;;;;;7282764;19;20188;-77
2024/02/10 08:44:40;;;;;;;13.57;5.20;;;12.60;99.90;;;;;;7283370;19;20203;-77
2024/02/10 08:47:06;;;;;;;10.93;4.43;;;12.50;99.90;;;;;;7282979;19;20260;-77
2024/02/10 08:49:35;;;;;;;12.97;5.00;;;12.70;99.90;;;;;;7280534;19;20272;-77
2024/02/10 08:52:05;;;;;;;10.43;4.70;;;12.80;99.90;;;;;;7282066;19;20195;-77
2024/02/10 08:54:31;;;;;;;11.80;4.50;;;12.80;99.90;;;;;;7283081;19;20676;-78
2024/02/10 08:57:01;;;;;;;9.67;4.57;;;12.80;99.90;;;;;;7281619;19;20541;-78
2024/02/10 08:59:31;;;;;;;11.37;4.60;;;12.90;99.90;;;;;;7284063;19;20195;-77
2024/02/10 09:02:04;;;;;;;11.57;5.13;;;13.00;99.90;;;;;;7281456;19;20189;-76
2024/02/10 09:04:30;;;;;;;11.50;4.90;;;12.90;99.90;;;;;;7281058;19;20232;-76
2024/02/10 09:07:00;;;;;;;11.03;4.87;;;12.90;99.90;;;;;;7280629;19;20318;-78
2024/02/10 09:09:29;;;;;;;12.03;5.10;;;12.90;99.90;;;;;;7278785;19;20222;-77
2024/02/10 09:11:55;;;;;;;11.63;4.80;;;12.90;99.90;;;;;;7280464;19;20210;-76
2024/02/10 09:14:20;;;;;;;10.53;4.37;;;13.00;99.90;;;;;;7302623;19;20181;-77
2024/02/10 09:16:46;;;;;;;11.50;5.20;;;13.00;99.90;;;;;;7280529;19;20635;-77
2024/02/10 09:19:15;;;;;;;10.87;4.53;;;13.00;99.90;;;;;;7282008;19;20254;-77
2024/02/10 09:21:41;;;;;;;12.43;5.13;;;13.20;99.90;;;;;;7282434;19;20268;-78
2024/02/10 09:24:09;;;;;;;11.30;5.30;;;13.30;99.90;;;;;;7279991;19;20547;-77
2024/02/10 09:26:36;;;;;;;10.80;4.47;;;13.40;99.90;;;;;;7281220;19;20224;-79
2024/02/10 09:29:01;;;;;;;13.33;4.57;;;13.40;99.90;;;;;;7279029;19;20727;-79
2024/02/10 09:31:28;;;;;;;18.33;7.07;;;13.40;99.90;;;;;;7281100;19;20246;-78
2024/02/10 09:33:54;;;;;;;26.67;8.57;;;13.40;99.90;;;;;;7280407;19;20192;-78
2024/02/10 09:36:20;;;;;;;13.23;5.90;;;13.40;99.90;;;;;;7301759;19;20182;-79
2024/02/10 09:38:47;;;;;;;16.63;5.03;;;13.50;99.90;;;;;;7282569;19;20204;-79
2024/02/10 09:41:12;;;;;;;14.37;4.93;;;13.50;99.90;;;;;;7281026;19;20241;-79
2024/02/10 09:43:42;;;;;;;12.73;4.63;;;13.70;99.90;;;;;;7283674;19;20190;-79
2024/02/10 09:46:08;;;;;;;9.27;4.43;;;13.70;99.90;;;;;;7283495;19;20225;-78
2024/02/10 09:48:48;;;;;;;15.70;6.33;;;13.70;99.90;;;;;;7280288;19;20992;-79
2024/02/10 09:51:14;;;;;;;12.27;4.97;;;13.70;99.90;;;;;;7282437;19;20193;-79
2024/02/10 09:53:41;;;;;;;12.17;5.20;;;13.80;99.90;;;;;;7281857;19;20194;-78
2024/02/10 09:56:13;;;;;;;20.93;9.10;;;14.00;99.90;;;;;;7280528;19;20195;-78
2024/02/10 09:58:49;;;;;;;12.70;5.77;;;14.10;99.90;;;;;;7282691;19;20199;-79
2024/02/10 10:01:15;;;;;;;14.03;5.67;;;14.20;99.90;;;;;;7280362;19;20186;-78
2024/02/10 10:03:41;;;;;;;14.47;7.03;;;14.40;99.90;;;;;;7283656;19;20191;-79
2024/02/10 10:06:10;;;;;;;13.93;6.17;;;14.30;99.90;;;;;;7289617;19;20186;-78
2024/02/10 10:08:38;;;;;;;15.83;7.47;;;14.30;99.90;;;;;;7294092;19;20209;-79
2024/02/10 10:11:10;;;;;;;11.70;4.83;;;14.20;99.90;;;;;;7293387;19;20218;-80
2024/02/10 10:13:37;;;;;;;10.00;4.23;;;14.30;99.90;;;;;;7297740;19;20212;-79
2024/02/10 10:16:07;;;;;;;11.43;5.27;;;14.30;99.90;;;;;;7289152;19;20210;-79
2024/02/10 10:18:35;;;;;;;11.53;4.83;;;14.50;99.90;;;;;;7291898;19;20216;-79
2024/02/10 10:21:04;;;;;;;8.10;3.70;;;14.80;99.90;;;;;;7291198;19;20190;-79
2024/02/10 10:23:31;;;;;;;11.23;5.43;;;14.90;99.90;;;;;;7288689;19;20259;-80
2024/02/10 10:25:57;;;;;;;8.83;4.30;;;15.10;99.90;;;;;;7287066;19;20193;-79
2024/02/10 10:28:23;;;;;;;9.20;4.30;;;15.20;99.90;;;;;;7301119;19;20544;-79
2024/02/10 10:30:49;;;;;;;7.90;3.73;;;15.20;99.90;;;;;;7308067;19;20191;-79
2024/02/10 10:33:20;;;;;;;8.93;3.43;;;15.20;99.90;;;;;;7286763;19;20218;-79
2024/02/10 10:35:47;;;;;;;11.73;3.90;;;15.20;99.90;;;;;;7287760;19;20640;-78
2024/02/10 10:38:18;;;;;;;9.63;3.57;;;15.40;99.90;;;;;;7288537;19;20292;-79
2024/02/10 10:40:45;;;;;;;11.07;4.77;;;15.60;99.90;;;;;;7288107;19;20740;-79
2024/02/10 10:43:11;;;;;;;8.43;3.53;;;15.70;99.90;;;;;;7287386;19;20189;-78
2024/02/10 10:45:39;;;;;;;9.20;5.10;;;15.90;99.90;;;;;;7287544;19;20712;-78
2024/02/10 10:48:05;;;;;;;8.70;3.13;;;16.00;99.90;;;;;;7287418;19;20563;-79
2024/02/10 10:50:32;;;;;;;9.50;4.33;;;15.90;99.90;;;;;;7286506;19;20213;-77
2024/02/10 10:53:06;;;;;;;8.03;3.03;;;15.80;99.90;;;;;;7287513;19;20189;-78
2024/02/10 10:55:43;;;;;;;7.03;2.87;;;15.30;99.90;;;;;;7287223;19;20196;-78
2024/02/10 10:58:16;;;;;;;7.13;3.10;;;15.50;99.90;;;;;;7286873;19;20539;-78
2024/02/10 11:00:45;;;;;;;7.20;2.70;;;15.40;99.90;;;;;;7285827;19;21275;-78
2024/02/10 11:03:14;;;;;;;7.07;2.93;;;15.40;99.90;;;;;;7285679;19;20212;-78
2024/02/10 11:05:42;;;;;;;5.77;2.60;;;15.20;99.90;;;;;;7287312;19;20189;-78
2024/02/10 11:08:13;;;;;;;5.13;2.67;;;15.30;99.90;;;;;;7285216;19;20208;-78
2024/02/10 11:10:48;;;;;;;8.10;3.20;;;15.20;99.90;;;;;;7286318;19;20191;-78
2024/02/10 11:13:26;;;;;;;5.83;2.70;;;15.10;99.90;;;;;;7287619;19;20255;-79
2024/02/10 11:16:03;;;;;;;8.03;2.90;;;15.10;99.90;;;;;;7285083;19;20522;-79
2024/02/10 11:18:37;;;;;;;8.90;2.90;;;15.10;99.90;;;;;;7183310;19;2004482;-79
2024/02/10 11:21:25;;;;;;;8.17;2.83;;;15.20;99.90;;;;;;7284658;19;20223;-78
2024/02/10 11:24:08;;;;;;;9.80;2.87;;;14.90;99.90;;;;;;7287034;19;20216;-77
2024/02/10 11:26:38;;;;;;;6.57;2.77;;;15.00;99.90;;;;;;7183863;19;2004628;-78
2024/02/10 11:29:07;;;;;;;8.57;2.73;;;15.00;99.90;;;;;;7284262;19;20207;-78
2024/02/10 11:31:37;;;;;;;6.57;3.40;;;15.20;99.90;;;;;;7285075;19;20191;-79
2024/02/10 11:34:11;;;;;;;7.20;2.70;;;15.20;99.90;;;;;;7285537;19;20208;-77
2024/02/10 11:36:38;;;;;;;6.47;2.77;;;15.30;99.90;;;;;;7286330;19;20192;-78
2024/02/10 11:39:09;;;;;;;9.37;2.70;;;15.30;99.90;;;;;;7285468;19;20518;-79
2024/02/10 11:41:41;;;;;;;7.23;2.80;;;15.20;99.90;;;;;;7285942;19;20197;-78
2024/02/10 11:44:09;;;;;;;7.93;2.50;;;15.50;99.90;;;;;;7285171;19;20704;-79
2024/02/10 11:46:36;;;;;;;5.87;2.60;;;15.60;99.90;;;;;;7285849;19;20195;-79
2024/02/10 11:49:02;;;;;;;6.57;2.40;;;15.80;99.90;;;;;;7285015;19;20204;-78
2024/02/10 11:51:28;;;;;;;6.57;2.50;;;16.00;99.90;;;;;;7283693;19;20208;-79
2024/02/10 11:53:58;;;;;;;5.23;2.40;;;16.10;99.90;;;;;;7287593;19;20191;-78
2024/02/10 11:56:34;;;;;;;8.80;2.23;;;16.10;99.90;;;;;;7296156;19;20559;-79
2024/02/10 11:59:01;;;;;;;6.30;2.90;;;15.80;99.90;;;;;;7285522;19;20194;-78
2024/02/10 12:01:27;;;;;;;6.13;2.00;;;15.60;99.90;;;;;;7284038;19;20189;-78
2024/02/10 12:03:53;;;;;;;4.33;2.37;;;15.50;99.90;;;;;;7296633;19;20185;-77
2024/02/10 12:06:22;;;;;;;6.37;2.30;;;15.60;99.90;;;;;;7301757;19;20197;-78
2024/02/10 12:08:49;;;;;;;7.10;2.43;;;15.70;99.90;;;;;;7281290;19;20198;-79
2024/02/10 12:11:16;;;;;;;7.13;2.33;;;15.80;99.90;;;;;;7282072;19;20191;-80
2024/02/10 12:13:42;;;;;;;7.93;2.20;;;15.70;99.90;;;;;;7282108;19;20220;-77
2024/02/10 12:16:11;;;;;;;5.50;1.80;;;15.70;99.90;;;;;;7279826;19;20303;-77
2024/02/10 12:18:38;;;;;;;6.80;2.20;;;15.80;99.90;;;;;;7281800;19;20216;-78
2024/02/10 12:21:04;;;;;;;4.13;2.10;;;16.20;99.90;;;;;;7279231;19;20187;-77
2024/02/10 12:23:32;;;;;;;4.50;1.77;;;16.60;99.90;;;;;;7280517;19;20181;-76
2024/02/10 12:26:01;;;;;;;4.40;1.70;;;16.50;99.90;;;;;;7279431;19;20189;-77
2024/02/10 12:28:30;;;;;;;5.47;1.80;;;16.50;99.90;;;;;;7277435;19;20190;-77
2024/02/10 12:30:56;;;;;;;5.23;1.90;;;16.60;99.90;;;;;;7279307;19;20193;-77
2024/02/10 12:33:22;;;;;;;5.80;1.80;;;16.50;99.90;;;;;;7301406;19;20221;-76
2024/02/10 12:35:51;;;;;;;4.27;1.70;;;16.60;99.90;;;;;;7278922;19;20214;-75
2024/02/10 12:38:18;;;;;;;3.60;1.53;;;16.70;99.90;;;;;;7279608;19;20184;-75
2024/02/10 12:40:44;;;;;;;2.87;1.47;;;16.40;99.90;;;;;;7279047;19;20218;-75
2024/02/10 12:43:13;;;;;;;5.03;1.80;;;16.70;99.90;;;;;;7277972;19;20862;-77
2024/02/10 12:45:47;;;;;;;5.40;1.60;;;16.90;99.90;;;;;;7281307;19;20190;-76
2024/02/10 12:48:15;;;;;;;4.93;1.83;;;17.10;99.90;;;;;;7279566;19;20200;-76